This is the latest recevied weather packets stored in our database for station/object HB9HUT-13. If no packets are shown the sender has not sent any weather packets the latest 10 day(s).
| Time | Temp. | Humidity | Pressure | Rain* | Wind** | Luminosity | Snow |
|---|---|---|---|---|---|---|---|
| 1777740714 | 20° C | 40% | 848.8 hPa | - | - | - | - |
| 1777740714 | 20° C | 40% | 848.8 hPa | - | - | - | - |
| 1777739811 | 19.44° C | 39% | 848.8 hPa | - | - | - | - |
| 1777738908 | 20.56° C | 37% | 849 hPa | - | - | - | - |
| 1777738908 | 20.56° C | 37% | 849 hPa | - | - | - | - |
| 1777738005 | 23.33° C | 33% | 849.1 hPa | - | - | - | - |
| 1777738005 | 23.33° C | 33% | 849.1 hPa | - | - | - | - |
| 1777737102 | 25° C | 31% | 849.2 hPa | - | - | - | - |
| 1777737102 | 25° C | 31% | 849.2 hPa | - | - | - | - |
| 1777736199 | 23.89° C | 33% | 849.2 hPa | - | - | - | - |
| 1777736199 | 23.89° C | 33% | 849.2 hPa | - | - | - | - |
| 1777735296 | 23.33° C | 34% | 849.4 hPa | - | - | - | - |
| 1777734393 | 23.33° C | 35% | 849.5 hPa | - | - | - | - |
| 1777733490 | 23.89° C | 34% | 849.6 hPa | - | - | - | - |
| 1777732587 | 23.89° C | 34% | 849.7 hPa | - | - | - | - |
| 1777731684 | 24.44° C | 31% | 849.8 hPa | - | - | - | - |
| 1777730781 | 23.89° C | 34% | 850 hPa | - | - | - | - |
| 1777730781 | 23.89° C | 34% | 850 hPa | - | - | - | - |
| 1777729878 | 23.89° C | 34% | 850.2 hPa | - | - | - | - |
| 1777729878 | 23.89° C | 34% | 850.2 hPa | - | - | - | - |
| 1777728975 | 24.44° C | 36% | 850.3 hPa | - | - | - | - |
| 1777728975 | 24.44° C | 36% | 850.3 hPa | - | - | - | - |
| 1777728072 | 25° C | 35% | 850.4 hPa | - | - | - | - |
| 1777727169 | 23.89° C | 35% | 850.6 hPa | - | - | - | - |
| 1777726266 | 24.44° C | 37% | 850.7 hPa | - | - | - | - |
* Rain since midnight (hover to see other rain measurements)
** Current wind speed in m/s (hover to see current wind gust speed)